createdAt,value
2018-04-09T00:00:24.729Z,89.07
2018-04-09T00:01:31.082Z,85.83
2018-04-09T00:02:37.940Z,93.43
2018-04-09T00:03:42.341Z,85.70
2018-04-09T00:04:46.580Z,80.80
2018-04-09T00:05:53.590Z,90.93
2018-04-09T00:07:00.254Z,83.30
2018-04-09T00:08:08.015Z,85.87
2018-04-09T00:09:12.231Z,102.03
2018-04-09T00:10:16.457Z,89.83
2018-04-09T00:11:22.954Z,90.37
2018-04-09T00:12:30.011Z,95.70
2018-04-09T00:13:36.475Z,96.57
2018-04-09T00:14:41.617Z,85.07
2018-04-09T00:15:45.840Z,90.00
2018-04-09T00:16:52.025Z,90.53
2018-04-09T00:17:59.323Z,90.10
2018-04-09T00:19:05.235Z,96.07
2018-04-09T00:20:10.282Z,83.30
2018-04-09T00:21:14.506Z,88.73
2018-04-09T00:22:20.323Z,91.50
2018-04-09T00:23:29.067Z,92.03
2018-04-09T00:24:35.115Z,85.60
2018-04-09T00:25:40.510Z,87.83
2018-04-09T00:26:44.728Z,99.80
2018-04-09T00:27:48.960Z,88.57
2018-04-09T00:28:58.541Z,90.23
2018-04-09T00:30:05.415Z,95.33
2018-04-09T00:31:10.169Z,92.07
2018-04-09T00:32:14.382Z,96.63
2018-04-09T00:33:18.597Z,84.10
2018-04-09T00:34:27.144Z,86.30
2018-04-09T00:35:35.359Z,86.77
2018-04-09T00:36:40.241Z,95.27
2018-04-09T00:37:44.441Z,91.90
2018-04-09T00:38:48.659Z,92.20
2018-04-09T00:39:58.838Z,89.60
2018-04-09T00:41:05.496Z,107.27
2018-04-09T00:42:09.969Z,104.57
2018-04-09T00:43:14.183Z,108.47
2018-04-09T00:44:18.407Z,99.70
2018-04-09T00:45:28.667Z,93.93
2018-04-09T00:46:37.275Z,103.23
2018-04-09T00:47:41.962Z,90.23
2018-04-09T00:48:46.184Z,92.60
2018-04-09T00:49:54.808Z,97.00
2018-04-09T00:51:03.486Z,96.50
2018-04-09T00:52:09.784Z,93.27
2018-04-09T00:53:14.050Z,91.87
2018-04-09T00:54:18.304Z,100.90
2018-04-09T00:55:26.299Z,96.70
2018-04-09T00:56:33.652Z,97.33
2018-04-09T00:57:39.207Z,100.60
2018-04-09T00:58:44.187Z,107.00
2018-04-09T00:59:48.432Z,109.30
2018-04-09T01:00:54.274Z,101.13
2018-04-09T01:02:00.826Z,108.73
2018-04-09T01:03:06.226Z,90.00
2018-04-09T01:04:10.520Z,105.97
2018-04-09T01:05:15.542Z,108.73
2018-04-09T01:06:23.377Z,108.73
2018-04-09T01:07:29.029Z,89.67
2018-04-09T01:08:35.763Z,95.67
2018-04-09T01:09:39.975Z,101.97
2018-04-09T01:10:44.220Z,109.70
2018-04-09T01:11:48.426Z,93.57
2018-04-09T01:12:53.838Z,103.57
2018-04-09T01:14:01.299Z,104.93
2018-04-09T01:15:05.995Z,97.73
2018-04-09T01:16:10.281Z,102.00
2018-04-09T01:17:14.505Z,91.53
2018-04-09T01:18:18.726Z,89.80
2018-04-09T01:19:25.407Z,102.43
2018-04-09T01:20:31.813Z,94.07
2018-04-09T01:21:39.006Z,105.57
2018-04-09T01:22:43.222Z,98.07
2018-04-09T01:23:47.447Z,111.97
2018-04-09T01:24:56.470Z,98.63
2018-04-09T01:26:06.400Z,95.30
2018-04-09T01:27:10.997Z,101.13
2018-04-09T01:28:15.277Z,97.23
2018-04-09T01:29:20.870Z,101.00
2018-04-09T01:30:30.601Z,102.33
2018-04-09T01:31:39.153Z,107.73
2018-04-09T01:32:43.429Z,108.23
2018-04-09T01:33:47.677Z,112.20
2018-04-09T01:34:58.584Z,104.77
2018-04-09T01:36:06.302Z,100.17
2018-04-09T01:37:10.688Z,99.73
2018-04-09T01:38:15.749Z,101.43
2018-04-09T01:39:22.676Z,109.37
2018-04-09T01:40:31.897Z,106.60
2018-04-09T01:41:37.769Z,99.27
2018-04-09T01:42:42.907Z,107.37
2018-04-09T01:43:47.944Z,104.10
2018-04-09T01:44:56.168Z,109.83
2018-04-09T01:46:04.184Z,108.60
2018-04-09T01:47:10.283Z,104.03
2018-04-09T01:48:14.507Z,104.43
2018-04-09T01:49:18.739Z,104.60
2018-04-09T01:50:27.729Z,112.00
2018-04-09T01:51:34.320Z,111.90
2018-04-09T01:52:40.173Z,115.47
2018-04-09T01:53:44.391Z,122.23
2018-04-09T01:54:48.611Z,112.63
2018-04-09T01:55:56.262Z,106.43
2018-04-09T01:57:03.739Z,113.47
2018-04-09T01:58:09.298Z,119.83
2018-04-09T01:59:13.535Z,115.73
2018-04-09T02:00:17.747Z,115.67
2018-04-09T02:01:26.875Z,118.63
2018-04-09T02:02:35.313Z,111.60
2018-04-09T02:03:41.636Z,111.07
2018-04-09T02:04:46.278Z,115.70
2018-04-09T02:05:53.259Z,103.23
2018-04-09T02:07:01.663Z,112.33
2018-04-09T02:08:07.321Z,117.57
2018-04-09T02:09:11.547Z,117.60
2018-04-09T02:10:16.157Z,108.97
2018-04-09T02:11:21.354Z,107.40
2018-04-09T02:12:29.432Z,109.70
2018-04-09T02:13:34.377Z,105.53
2018-04-09T02:14:38.660Z,106.10
2018-04-09T02:15:42.940Z,115.93
2018-04-09T02:16:47.154Z,111.80
2018-04-09T02:17:53.880Z,116.40
2018-04-09T02:19:00.497Z,121.77
2018-04-09T02:20:06.497Z,121.03
2018-04-09T02:21:11.498Z,105.93
2018-04-09T02:22:15.725Z,108.60
2018-04-09T02:23:23.050Z,106.90
2018-04-09T02:24:30.306Z,118.00
2018-04-09T02:25:38.281Z,116.23
2018-04-09T02:26:42.484Z,112.67
2018-04-09T02:27:46.717Z,114.63
2018-04-09T02:28:53.206Z,115.93
2018-04-09T02:30:03.045Z,110.97
2018-04-09T02:31:09.477Z,100.83
2018-04-09T02:32:13.722Z,109.90
2018-04-09T02:33:17.978Z,108.50
2018-04-09T02:34:25.400Z,113.10
2018-04-09T02:35:33.901Z,114.33
2018-04-09T02:36:39.696Z,115.53
2018-04-09T02:37:43.916Z,105.07
2018-04-09T02:38:48.127Z,108.77
2018-04-09T02:39:58.430Z,110.80
2018-04-09T02:41:05.237Z,110.90
2018-04-09T02:42:10.725Z,108.77
2018-04-09T02:43:14.983Z,113.40
2018-04-09T02:44:19.183Z,111.43
2018-04-09T02:45:27.793Z,106.63
2018-04-09T02:46:37.456Z,112.67
2018-04-09T02:47:42.123Z,123.80
2018-04-09T02:48:46.345Z,109.77
2018-04-09T02:49:55.927Z,111.87
2018-04-09T02:51:06.844Z,111.33
2018-04-09T02:52:12.824Z,113.43
2018-04-09T02:53:17.819Z,119.07
2018-04-09T02:54:25.944Z,104.13
2018-04-09T02:55:32.781Z,115.30
2018-04-09T02:56:39.211Z,128.63
2018-04-09T02:57:43.472Z,118.03
2018-04-09T02:58:47.775Z,128.87
2018-04-09T02:59:57.884Z,109.40
2018-04-09T03:01:08.249Z,109.93
2018-04-09T03:02:12.515Z,126.00
2018-04-09T03:03:16.752Z,118.17
2018-04-09T03:04:24.860Z,118.07
2018-04-09T03:05:33.982Z,113.93
2018-04-09T03:06:40.414Z,116.20
2018-04-09T03:07:44.673Z,122.03
2018-04-09T03:08:48.967Z,113.93
2018-04-09T03:09:59.174Z,121.67
2018-04-09T03:11:05.978Z,120.53
2018-04-09T03:12:11.328Z,121.63
2018-04-09T03:13:15.561Z,124.10
2018-04-09T03:14:23.100Z,126.67
2018-04-09T03:15:31.049Z,120.80
2018-04-09T03:16:38.963Z,114.33
2018-04-09T03:17:43.256Z,130.23
2018-04-09T03:18:47.468Z,120.07
2018-04-09T03:19:56.640Z,118.10
2018-04-09T03:21:04.200Z,130.50
2018-04-09T03:22:09.666Z,113.13
2018-04-09T03:23:13.911Z,120.57
2018-04-09T03:24:18.967Z,121.93
2018-04-09T03:25:31.416Z,117.67
2018-04-09T03:26:37.848Z,121.40
2018-04-09T03:27:42.131Z,129.50
2018-04-09T03:28:47.102Z,120.83
2018-04-09T03:29:55.972Z,113.97
2018-04-09T03:31:03.243Z,130.53
2018-04-09T03:32:10.466Z,117.40
2018-04-09T03:33:14.762Z,123.50
2018-04-09T03:34:19.546Z,120.43
2018-04-09T03:35:29.632Z,128.00
2018-04-09T03:36:36.871Z,126.30
2018-04-09T03:37:42.361Z,118.20
2018-04-09T03:38:46.573Z,121.83
2018-04-09T03:39:53.614Z,116.03
2018-04-09T03:41:00.946Z,119.90
2018-04-09T03:42:06.535Z,121.50
2018-04-09T03:43:11.534Z,120.83
2018-04-09T03:44:15.757Z,113.50
2018-04-09T03:45:22.506Z,121.67
2018-04-09T03:46:30.646Z,122.50
2018-04-09T03:47:36.400Z,116.23
2018-04-09T03:48:41.369Z,122.43
2018-04-09T03:49:45.562Z,112.60
2018-04-09T03:50:51.236Z,119.50
2018-04-09T03:52:01.798Z,120.60
2018-04-09T03:53:08.862Z,124.30
2018-04-09T03:54:13.108Z,125.07
2018-04-09T03:55:17.358Z,116.97
2018-04-09T03:56:27.083Z,122.70
2018-04-09T03:57:35.056Z,116.13
2018-04-09T03:58:40.877Z,124.57
2018-04-09T03:59:45.096Z,123.93
2018-04-09T04:00:49.314Z,128.53
2018-04-09T04:01:59.546Z,127.87
2018-04-09T04:03:08.312Z,120.93
2018-04-09T04:04:12.886Z,123.93
2018-04-09T04:05:17.103Z,115.37
2018-04-09T04:06:25.102Z,121.93
2018-04-09T04:07:33.669Z,129.87
2018-04-09T04:08:39.219Z,128.27
2018-04-09T04:09:44.605Z,121.73
2018-04-09T04:10:48.825Z,127.47
2018-04-09T04:11:57.511Z,115.77
2018-04-09T04:13:04.854Z,126.50
2018-04-09T04:14:09.414Z,125.80
2018-04-09T04:15:13.659Z,120.13
2018-04-09T04:16:36.434Z,124.90
2018-04-09T04:17:59.455Z,126.77
2018-04-09T04:21:07.965Z,121.10
2018-04-09T04:22:12.231Z,113.00
2018-04-09T04:23:16.432Z,116.23
2018-04-09T04:24:23.180Z,120.27
2018-04-09T04:25:31.763Z,121.00
2018-04-09T04:26:41.962Z,120.33
2018-04-09T04:27:46.189Z,104.50
2018-04-09T04:28:51.160Z,111.73
2018-04-09T04:30:02.404Z,121.97
2018-04-09T04:31:09.942Z,122.33
2018-04-09T04:32:14.688Z,113.73
2018-04-09T04:33:18.919Z,127.87
2018-04-09T04:34:28.979Z,120.80
2018-04-09T04:35:36.923Z,122.37
2018-04-09T04:36:41.161Z,116.80
2018-04-09T04:37:45.755Z,121.90
2018-04-09T04:38:53.331Z,114.87
2018-04-09T04:40:01.430Z,122.17
2018-04-09T04:41:09.024Z,126.97
2018-04-09T04:42:13.367Z,117.40
2018-04-09T04:43:17.678Z,121.53
2018-04-09T04:44:27.893Z,116.63
2018-04-09T04:45:37.437Z,105.27
2018-04-09T04:46:43.010Z,108.13
2018-04-09T04:47:47.228Z,122.20
2018-04-09T04:48:54.866Z,115.03
2018-04-09T04:50:03.255Z,127.33
2018-04-09T04:51:10.063Z,111.53
2018-04-09T04:52:14.310Z,130.80
2018-04-09T04:53:18.525Z,121.03
2018-04-09T04:54:25.024Z,125.57
2018-04-09T04:55:34.517Z,120.73
2018-04-09T04:56:39.536Z,111.10
2018-04-09T04:57:43.774Z,126.70
2018-04-09T04:58:48.023Z,124.77
2018-04-09T04:59:57.548Z,124.73
2018-04-09T05:01:04.658Z,117.67
2018-04-09T05:02:12.232Z,121.43
2018-04-09T05:03:16.439Z,124.00
2018-04-09T05:04:22.610Z,118.10
2018-04-09T05:05:30.290Z,124.20
2018-04-09T05:06:38.048Z,132.27
2018-04-09T05:07:42.324Z,116.73
2018-04-09T05:08:46.536Z,125.50
2018-04-09T05:09:51.820Z,119.97
2018-04-09T05:10:59.632Z,112.80
2018-04-09T05:12:05.805Z,112.33
2018-04-09T05:13:10.032Z,120.23
2018-04-09T05:14:14.249Z,113.57
2018-04-09T05:15:18.463Z,119.00
2018-04-09T05:16:25.833Z,121.07
2018-04-09T05:17:31.190Z,121.33
2018-04-09T05:18:36.076Z,116.83
2018-04-09T05:19:40.320Z,127.23
2018-04-09T05:20:44.596Z,119.13
2018-04-09T05:21:48.778Z,111.00
2018-04-09T05:22:58.522Z,122.77
2018-04-09T05:24:05.851Z,116.20
2018-04-09T05:25:11.374Z,125.30
2018-04-09T05:26:15.593Z,111.27
2018-04-09T05:27:20.602Z,120.63
2018-04-09T05:28:28.694Z,113.20
2018-04-09T05:29:34.049Z,113.33
2018-04-09T05:30:39.026Z,114.03
2018-04-09T05:31:43.300Z,122.63
2018-04-09T05:32:47.539Z,117.73
2018-04-09T05:33:54.841Z,110.93
2018-04-09T05:35:03.244Z,119.03
2018-04-09T05:36:09.876Z,108.30
2018-04-09T05:37:14.104Z,117.37
2018-04-09T05:38:18.720Z,128.90
2018-04-09T05:39:27.721Z,112.10
2018-04-09T05:40:35.431Z,118.63
2018-04-09T05:41:40.961Z,120.67
2018-04-09T05:42:45.196Z,121.67
2018-04-09T05:43:49.908Z,120.60
2018-04-09T05:44:59.009Z,112.73
2018-04-09T05:46:04.637Z,117.17
2018-04-09T05:47:10.627Z,116.53
2018-04-09T05:48:14.879Z,113.73
2018-04-09T05:49:19.190Z,107.97
2018-04-09T05:50:29.569Z,118.67
2018-04-09T05:51:38.556Z,126.83
2018-04-09T05:52:42.898Z,114.13
2018-04-09T05:53:47.106Z,119.27
2018-04-09T05:54:55.901Z,119.50
2018-04-09T05:56:03.554Z,120.53
2018-04-09T05:57:10.707Z,121.87
2018-04-09T05:58:15.702Z,114.33
2018-04-09T05:59:23.409Z,136.80
2018-04-09T06:00:37.105Z,120.67
2018-04-09T06:01:41.816Z,109.70
2018-04-09T06:02:46.036Z,115.50
2018-04-09T06:03:53.905Z,119.13
2018-04-09T06:05:03.044Z,117.63
2018-04-09T06:06:09.719Z,113.43
2018-04-09T06:07:13.972Z,125.87
2018-04-09T06:08:18.202Z,117.70
2018-04-09T06:09:28.729Z,115.40
2018-04-09T06:10:38.668Z,120.73
2018-04-09T06:11:42.883Z,110.07
2018-04-09T06:12:47.165Z,117.43
2018-04-09T06:13:55.515Z,116.00
2018-04-09T06:15:05.129Z,114.67
2018-04-09T06:16:11.017Z,109.00
2018-04-09T06:17:15.218Z,118.63
2018-04-09T06:18:19.480Z,128.13
2018-04-09T06:19:29.213Z,121.77
2018-04-09T06:20:37.037Z,121.70
2018-04-09T06:21:42.527Z,119.87
2018-04-09T06:22:46.749Z,116.40
2018-04-09T06:23:54.866Z,119.73
2018-04-09T06:25:02.551Z,121.47
2018-04-09T06:26:09.107Z,120.53
2018-04-09T06:27:14.099Z,120.13
2018-04-09T06:28:18.333Z,116.47
2018-04-09T06:29:29.917Z,109.07
2018-04-09T06:30:38.713Z,113.80
2018-04-09T06:31:43.796Z,120.00
2018-04-09T06:32:48.785Z,109.00
2018-04-09T06:33:58.906Z,119.87
2018-04-09T06:35:05.903Z,116.53
2018-04-09T06:36:11.157Z,116.33
2018-04-09T06:37:15.394Z,117.83
2018-04-09T06:38:23.219Z,105.93
2018-04-09T06:39:31.521Z,107.43
2018-04-09T06:40:39.441Z,118.47
2018-04-09T06:41:43.687Z,114.60
2018-04-09T06:42:47.890Z,120.40
2018-04-09T06:43:56.431Z,112.27
2018-04-09T06:45:04.896Z,114.60
2018-04-09T06:46:10.932Z,112.03
2018-04-09T06:47:15.146Z,109.03
2018-04-09T06:48:19.601Z,103.43
2018-04-09T06:49:30.261Z,105.23
2018-04-09T06:50:37.236Z,110.57
2018-04-09T06:51:41.787Z,105.57
2018-04-09T06:52:46.011Z,113.27
2018-04-09T06:53:52.815Z,114.30
2018-04-09T06:54:59.738Z,110.63
2018-04-09T06:56:06.042Z,94.43
2018-04-09T06:57:10.261Z,103.13
2018-04-09T06:58:14.483Z,116.83
2018-04-09T06:59:18.711Z,108.07
2018-04-09T07:00:26.693Z,101.80
2018-04-09T07:01:32.920Z,103.50
2018-04-09T07:02:37.791Z,104.07
2018-04-09T07:03:42.006Z,104.30
2018-04-09T07:04:47.031Z,112.77
2018-04-09T07:05:54.632Z,102.33
2018-04-09T07:07:03.983Z,103.67
2018-04-09T07:08:09.669Z,112.30
2018-04-09T07:09:13.894Z,100.23
2018-04-09T07:10:18.150Z,92.57
2018-04-09T07:11:32.706Z,96.40
2018-04-09T07:12:39.521Z,97.60
2018-04-09T07:13:44.546Z,101.13
2018-04-09T07:14:48.823Z,104.27
2018-04-09T07:16:08.368Z,95.17
2018-04-09T07:17:14.595Z,86.33
2018-04-09T07:18:18.830Z,108.87
2018-04-09T07:19:26.580Z,100.40
2018-04-09T07:20:36.146Z,92.40
2018-04-09T07:21:41.255Z,86.77
2018-04-09T07:22:45.477Z,87.63
2018-04-09T07:23:50.793Z,92.37
2018-04-09T07:24:56.474Z,87.50
2018-04-09T07:26:07.952Z,95.93
2018-04-09T07:27:12.158Z,88.50
2018-04-09T07:28:16.375Z,93.00
2018-04-09T07:29:21.098Z,87.07
2018-04-09T07:30:28.832Z,80.17
2018-04-09T07:31:35.669Z,98.97
2018-04-09T07:32:41.258Z,101.90
2018-04-09T07:33:45.479Z,87.17
2018-04-09T07:34:50.771Z,91.33
2018-04-09T07:35:59.334Z,91.27
2018-04-09T07:37:06.713Z,81.80
2018-04-09T07:38:12.304Z,83.43
2018-04-09T07:39:16.510Z,79.07
2018-04-09T07:40:24.281Z,96.83
2018-04-09T07:41:33.093Z,93.37
2018-04-09T07:42:40.277Z,84.10
2018-04-09T07:43:44.572Z,82.77
2018-04-09T07:44:48.800Z,79.17
2018-04-09T07:45:58.170Z,90.23
2018-04-09T07:47:05.403Z,84.93
2018-04-09T07:48:10.538Z,82.43
2018-04-09T07:49:14.761Z,81.33
2018-04-09T07:50:18.984Z,81.00
2018-04-09T07:51:27.389Z,78.03
2018-04-09T07:52:33.424Z,89.17
2018-04-09T07:53:40.117Z,75.50
2018-04-09T07:54:45.156Z,84.70
2018-04-09T07:55:50.967Z,88.03
2018-04-09T07:57:00.593Z,82.10
2018-04-09T07:58:09.252Z,75.53
2018-04-09T07:59:13.506Z,77.83
2018-04-09T08:00:18.480Z,75.53
2018-04-09T08:01:28.610Z,73.50
2018-04-09T08:02:34.636Z,81.87
2018-04-09T08:03:40.289Z,84.77
2018-04-09T08:04:44.558Z,77.13
2018-04-09T08:05:48.777Z,84.03
2018-04-09T08:06:58.105Z,83.13
2018-04-09T08:08:06.814Z,75.33
2018-04-09T08:09:11.380Z,80.00
2018-04-09T08:10:16.401Z,69.10
2018-04-09T08:11:26.018Z,70.97
2018-04-09T08:12:36.668Z,79.77
2018-04-09T08:13:42.588Z,77.87
2018-04-09T08:14:47.002Z,81.63
2018-04-09T08:15:56.014Z,85.50
2018-04-09T08:17:02.574Z,85.47
2018-04-09T08:18:07.335Z,63.80
2018-04-09T08:19:11.612Z,80.70
2018-04-09T08:20:15.811Z,70.70
2018-04-09T08:21:23.485Z,78.93
2018-04-09T08:22:31.355Z,75.40
2018-04-09T08:23:39.012Z,78.43
2018-04-09T08:24:43.285Z,73.03
2018-04-09T08:25:47.484Z,73.73
2018-04-09T08:26:54.857Z,83.30
2018-04-09T08:28:02.863Z,72.80
2018-04-09T08:29:09.935Z,75.43
2018-04-09T08:30:14.222Z,71.63
2018-04-09T08:31:18.436Z,75.20
2018-04-09T08:32:27.659Z,71.53
2018-04-09T08:33:33.594Z,69.57
2018-04-09T08:34:39.153Z,69.70
2018-04-09T08:35:43.448Z,77.80
2018-04-09T08:36:47.668Z,65.53
2018-04-09T08:37:57.183Z,70.07
2018-04-09T08:39:06.288Z,64.93
2018-04-09T08:40:10.826Z,64.70
2018-04-09T08:41:15.837Z,61.30
2018-04-09T08:42:23.532Z,69.90
2018-04-09T08:43:33.970Z,69.83
2018-04-09T08:44:39.493Z,68.33
2018-04-09T08:45:44.110Z,61.30
2018-04-09T08:46:48.308Z,79.97
2018-04-09T08:47:57.050Z,60.33
2018-04-09T08:49:06.464Z,68.00
2018-04-09T08:50:10.670Z,72.73
2018-04-09T08:51:14.933Z,64.50
2018-04-09T08:52:19.163Z,69.97
2018-04-09T08:53:30.146Z,56.40
2018-04-09T08:54:38.676Z,55.20
2018-04-09T08:55:42.941Z,59.80
2018-04-09T08:56:47.972Z,67.03
2018-04-09T08:57:57.789Z,68.07
2018-04-09T08:59:05.412Z,64.57
2018-04-09T09:00:10.176Z,54.67
2018-04-09T09:01:14.395Z,56.17
2018-04-09T09:02:20.876Z,65.40
2018-04-09T09:03:28.055Z,63.17
2018-04-09T09:04:32.887Z,68.10
2018-04-09T09:05:37.380Z,58.03
2018-04-09T09:06:41.616Z,58.90
2018-04-09T09:07:45.846Z,65.97
2018-04-09T09:08:53.702Z,58.50
2018-04-09T09:10:01.696Z,59.23
2018-04-09T09:11:07.732Z,50.07
2018-04-09T09:12:11.965Z,58.17
2018-04-09T09:13:16.566Z,60.73
2018-04-09T09:14:22.243Z,53.83
2018-04-09T09:15:28.310Z,55.53
2018-04-09T09:16:33.454Z,58.43
2018-04-09T09:17:37.702Z,54.57
2018-04-09T09:18:42.317Z,49.63
2018-04-09T09:19:46.537Z,50.80
2018-04-09T09:20:53.769Z,52.90
2018-04-09T09:22:05.254Z,60.13
2018-04-09T09:23:10.135Z,53.63
2018-04-09T09:24:14.356Z,59.97
2018-04-09T09:25:20.125Z,55.97
2018-04-09T09:26:30.066Z,59.70
2018-04-09T09:27:36.213Z,64.77
2018-04-09T09:28:41.312Z,56.57
2018-04-09T09:29:45.561Z,58.17
2018-04-09T09:30:50.778Z,54.07
2018-04-09T09:32:00.719Z,54.80
2018-04-09T09:33:08.088Z,52.87
2018-04-09T09:34:12.383Z,62.47
2018-04-09T09:35:17.405Z,52.07
2018-04-09T09:36:26.229Z,52.87
2018-04-09T09:37:34.441Z,54.33
2018-04-09T09:38:41.248Z,52.83
2018-04-09T09:39:45.477Z,55.80
2018-04-09T09:40:51.662Z,51.87
2018-04-09T09:42:00.701Z,46.27
2018-04-09T09:43:07.921Z,58.07
2018-04-09T09:44:12.136Z,56.40
2018-04-09T09:45:16.337Z,53.37
2018-04-09T09:46:23.030Z,50.90
2018-04-09T09:47:31.969Z,46.13
2018-04-09T09:48:38.626Z,58.00
2018-04-09T09:49:42.863Z,45.60
2018-04-09T09:50:47.088Z,52.57
2018-04-09T09:51:55.626Z,46.23
2018-04-09T09:53:03.720Z,44.27
2018-04-09T09:54:09.652Z,43.90
2018-04-09T09:55:13.880Z,56.20
2018-04-09T09:56:18.152Z,46.00
2018-04-09T09:57:26.992Z,52.63
2018-04-09T09:58:35.292Z,53.10
2018-04-09T09:59:40.207Z,50.77
2018-04-09T10:00:48.032Z,43.87
2018-04-09T10:01:56.307Z,47.57
2018-04-09T10:03:02.770Z,41.60
2018-04-09T10:04:09.586Z,45.60
2018-04-09T10:05:13.802Z,43.23
2018-04-09T10:06:18.006Z,49.47
2018-04-09T10:07:27.596Z,46.73
2018-04-09T10:08:34.160Z,45.40
2018-04-09T10:09:39.365Z,44.77
2018-04-09T10:10:43.652Z,47.10
2018-04-09T10:11:47.863Z,46.37
2018-04-09T10:12:56.979Z,47.10
2018-04-09T10:14:04.721Z,49.77
2018-04-09T10:15:10.570Z,42.47
2018-04-09T10:16:14.798Z,47.80
2018-04-09T10:17:19.036Z,50.43
2018-04-09T10:18:31.284Z,42.97
2018-04-09T10:19:37.464Z,47.83
2018-04-09T10:20:41.719Z,52.00
2018-04-09T10:21:45.941Z,43.53
2018-04-09T10:22:53.163Z,44.37
2018-04-09T10:24:02.289Z,46.60
2018-04-09T10:25:10.276Z,55.03
2018-04-09T10:26:14.871Z,44.00
2018-04-09T10:27:19.102Z,45.57
2018-04-09T10:28:28.483Z,42.77
2018-04-09T10:29:34.769Z,42.43
2018-04-09T10:30:38.989Z,43.60
2018-04-09T10:31:43.261Z,42.10
2018-04-09T10:32:47.463Z,54.83
2018-04-09T10:33:56.303Z,47.27
2018-04-09T10:35:04.199Z,44.60
2018-04-09T10:36:08.747Z,46.33
2018-04-09T10:37:12.992Z,41.80
2018-04-09T10:38:17.580Z,45.57
2018-04-09T10:39:22.328Z,43.57
2018-04-09T10:40:30.931Z,46.83
2018-04-09T10:41:36.948Z,41.07
2018-04-09T10:42:41.176Z,38.47
2018-04-09T10:43:45.441Z,45.87
2018-04-09T10:44:50.111Z,45.07
2018-04-09T10:45:57.798Z,45.13
2018-04-09T10:47:03.868Z,44.37
2018-04-09T10:48:08.312Z,38.47
2018-04-09T10:49:12.563Z,51.00
2018-04-09T10:50:17.548Z,44.00
2018-04-09T10:51:24.142Z,42.40
2018-04-09T10:52:30.317Z,48.20
2018-04-09T10:53:38.390Z,47.57
2018-04-09T10:54:42.635Z,46.70
2018-04-09T10:55:46.843Z,45.90
2018-04-09T10:56:52.994Z,42.07
2018-04-09T10:57:59.734Z,36.67
2018-04-09T10:59:05.334Z,43.20
2018-04-09T11:00:09.546Z,42.77
2018-04-09T11:01:13.756Z,49.93
2018-04-09T11:02:18.030Z,38.80
2018-04-09T11:03:24.252Z,44.60
2018-04-09T11:04:29.482Z,46.33
2018-04-09T11:05:35.549Z,41.50
2018-04-09T11:06:39.765Z,42.97
2018-04-09T11:07:44.031Z,43.43
2018-04-09T11:08:48.252Z,37.03
2018-04-09T11:09:56.611Z,40.83
2018-04-09T11:11:01.163Z,37.70
2018-04-09T11:12:07.847Z,43.10
2018-04-09T11:13:12.127Z,41.40
2018-04-09T11:14:17.102Z,42.47
2018-04-09T11:15:22.276Z,42.13
2018-04-09T11:16:26.743Z,48.80
2018-04-09T11:17:34.340Z,45.43
2018-04-09T11:18:39.403Z,40.63
2018-04-09T11:19:43.615Z,45.37
2018-04-09T11:20:47.841Z,40.53
2018-04-09T11:21:56.175Z,41.90
2018-04-09T11:23:00.529Z,38.80
2018-04-09T11:24:07.285Z,38.17
2018-04-09T11:25:11.573Z,43.67
2018-04-09T11:26:15.781Z,39.33
2018-04-09T11:27:20.178Z,35.87
2018-04-09T11:28:24.811Z,36.93
2018-04-09T11:29:31.672Z,38.67
2018-04-09T11:30:38.113Z,38.10
2018-04-09T11:31:42.352Z,41.30
2018-04-09T11:32:47.356Z,42.87
2018-04-09T11:33:52.055Z,45.13
2018-04-09T11:34:58.782Z,37.30
2018-04-09T11:36:06.122Z,47.47
2018-04-09T11:37:10.431Z,40.87
2018-04-09T11:38:14.654Z,35.43
2018-04-09T11:39:18.857Z,42.73
2018-04-09T11:40:25.323Z,40.30
2018-04-09T11:41:32.271Z,40.10
2018-04-09T11:42:37.582Z,37.10
2018-04-09T11:43:41.959Z,40.27
2018-04-09T11:44:46.171Z,42.73
2018-04-09T11:45:52.040Z,37.73
2018-04-09T11:47:01.578Z,42.40
2018-04-09T11:48:07.179Z,43.50
2018-04-09T11:49:11.395Z,35.67
2018-04-09T11:50:15.592Z,42.03
2018-04-09T11:51:20.978Z,37.83
2018-04-09T11:52:30.748Z,36.90
2018-04-09T11:53:38.321Z,40.60
2018-04-09T11:54:42.614Z,36.00
2018-04-09T11:55:46.817Z,42.23
2018-04-09T11:56:57.074Z,38.53
2018-04-09T11:58:04.042Z,41.27
2018-04-09T11:59:09.359Z,36.43
2018-04-09T12:00:13.580Z,42.60
2018-04-09T12:01:17.810Z,40.00
2018-04-09T12:02:29.359Z,38.33
2018-04-09T12:03:38.134Z,38.47
2018-04-09T12:04:42.341Z,42.53
2018-04-09T12:05:47.304Z,39.27
2018-04-09T12:06:54.782Z,45.90
2018-04-09T12:08:04.654Z,36.13
2018-04-09T12:09:11.783Z,41.00
2018-04-09T12:10:16.041Z,36.97
2018-04-09T12:11:23.685Z,42.50
2018-04-09T12:12:31.887Z,44.70
2018-04-09T12:13:38.574Z,37.73
2018-04-09T12:14:42.874Z,40.90
2018-04-09T12:15:47.469Z,36.87
2018-04-09T12:16:56.523Z,47.30
2018-04-09T12:18:04.288Z,45.90
2018-04-09T12:19:09.490Z,39.40
2018-04-09T12:20:13.714Z,43.90
2018-04-09T12:21:17.982Z,43.50
2018-04-09T12:22:23.655Z,40.63
2018-04-09T12:23:32.880Z,47.87
2018-04-09T12:24:38.372Z,39.53
2018-04-09T12:25:43.404Z,39.00
2018-04-09T12:26:48.377Z,41.47
2018-04-09T12:27:56.968Z,40.53
2018-04-09T12:29:05.188Z,42.53
2018-04-09T12:30:09.722Z,33.47
2018-04-09T12:31:13.951Z,41.27
2018-04-09T12:32:18.157Z,42.10
2018-04-09T12:33:26.703Z,38.77
2018-04-09T12:34:32.875Z,42.47
2018-04-09T12:35:38.203Z,37.00
2018-04-09T12:36:43.194Z,43.40
2018-04-09T12:37:47.414Z,41.70
2018-04-09T12:38:57.433Z,39.43
2018-04-09T12:40:03.983Z,37.43
2018-04-09T12:41:09.282Z,42.50
2018-04-09T12:42:14.253Z,35.03
2018-04-09T12:43:18.464Z,38.63
2018-04-09T12:44:22.893Z,39.13
2018-04-09T12:45:29.734Z,36.30
2018-04-09T12:46:38.033Z,37.67
2018-04-09T12:47:44.226Z,41.70
2018-04-09T12:48:48.451Z,34.20
2018-04-09T12:49:57.561Z,35.13
2018-04-09T12:51:04.581Z,45.23
2018-04-09T12:52:09.438Z,41.63
2018-04-09T12:53:14.479Z,38.33
2018-04-09T12:54:18.685Z,33.10
2018-04-09T12:55:28.071Z,39.93
2018-04-09T12:56:33.302Z,41.20
2018-04-09T12:57:38.626Z,38.40
2018-04-09T12:58:42.857Z,45.10
2018-04-09T12:59:47.857Z,38.23
2018-04-09T13:02:01.253Z,37.97
2018-04-09T13:03:08.137Z,46.60
2018-04-09T13:04:12.402Z,36.70
2018-04-09T13:05:16.609Z,38.23
2018-04-09T13:06:24.874Z,36.93
2018-04-09T13:07:33.984Z,45.93
2018-04-09T13:08:39.426Z,36.80
2018-04-09T13:09:43.657Z,37.70
2018-04-09T13:10:47.879Z,37.47
2018-04-09T13:11:52.893Z,39.80
2018-04-09T13:12:58.154Z,36.17
2018-04-09T13:14:05.562Z,43.07
2018-04-09T13:15:10.509Z,41.43
2018-04-09T13:16:14.721Z,37.80
2018-04-09T13:17:21.620Z,36.47
2018-04-09T13:18:30.795Z,34.60
2018-04-09T13:19:36.790Z,38.43
2018-04-09T13:20:41.194Z,42.83
2018-04-09T13:21:46.163Z,29.63
2018-04-09T13:22:52.006Z,39.50
2018-04-09T13:24:04.546Z,34.77
2018-04-09T13:25:12.797Z,38.50
2018-04-09T13:26:17.023Z,40.00
2018-04-09T13:27:29.652Z,35.53
2018-04-09T13:28:40.384Z,44.63
2018-04-09T13:29:44.593Z,47.83
2018-04-09T13:30:48.855Z,36.70
2018-04-09T13:31:58.821Z,35.97
2018-04-09T13:33:05.686Z,41.67
2018-04-09T13:34:11.206Z,39.80
2018-04-09T13:35:15.418Z,40.17
2018-04-09T13:36:20.251Z,38.00
2018-04-09T13:37:31.057Z,38.73
2018-04-09T13:38:43.041Z,41.03
2018-04-09T13:39:47.881Z,37.60
2018-04-09T13:40:58.023Z,42.17
2018-04-09T13:42:07.663Z,43.80
2018-04-09T13:43:11.909Z,38.43
2018-04-09T13:44:16.116Z,32.00
2018-04-09T13:45:26.048Z,34.40
2018-04-09T13:46:33.011Z,38.93
2018-04-09T13:47:38.947Z,33.83
2018-04-09T13:48:43.154Z,34.03
2018-04-09T13:49:48.151Z,39.53
2018-04-09T13:50:56.252Z,29.67
2018-04-09T13:52:03.425Z,32.77
2018-04-09T13:53:16.060Z,37.90
2018-04-09T13:54:23.488Z,34.80
2018-04-09T13:55:29.969Z,35.87
2018-04-09T13:56:37.056Z,25.70
2018-04-09T13:57:41.306Z,32.37
2018-04-09T13:58:45.521Z,30.90
2018-04-09T13:59:50.097Z,29.03
2018-04-09T14:00:57.784Z,45.63
2018-04-09T14:02:06.922Z,32.00
2018-04-09T14:03:11.489Z,33.27
2018-04-09T14:04:16.452Z,35.03
2018-04-09T14:05:24.024Z,45.53